sensor_id;sensor_type;location;lat;lon;timestamp;P1;durP1;ratioP1;P2;durP2;ratioP2
54557;SDS011;40452;50.080;20.040;2024-01-30T04:05:57;30.35;;;18.08;;
54557;SDS011;40452;50.080;20.040;2024-01-30T04:08:23;28.70;;;18.08;;
54557;SDS011;40452;50.080;20.040;2024-01-30T04:10:49;29.80;;;18.10;;
54557;SDS011;40452;50.080;20.040;2024-01-30T04:13:15;28.70;;;17.98;;
54557;SDS011;40452;50.080;20.040;2024-01-30T04:15:41;31.13;;;18.08;;
54557;SDS011;40452;50.080;20.040;2024-01-30T04:18:07;28.27;;;18.25;;
54557;SDS011;40452;50.080;20.040;2024-01-30T04:20:33;28.45;;;17.67;;
54557;SDS011;40452;50.080;20.040;2024-01-30T04:22:59;27.83;;;17.75;;
54557;SDS011;40452;50.080;20.040;2024-01-30T04:25:25;28.13;;;18.23;;
54557;SDS011;40452;50.080;20.040;2024-01-30T04:27:51;30.02;;;18.88;;
54557;SDS011;40452;50.080;20.040;2024-01-30T04:30:17;29.80;;;19.02;;
54557;SDS011;40452;50.080;20.040;2024-01-30T04:32:43;34.38;;;21.23;;
54557;SDS011;40452;50.080;20.040;2024-01-30T04:35:09;35.45;;;19.75;;
54557;SDS011;40452;50.080;20.040;2024-01-30T04:37:35;33.25;;;20.23;;
54557;SDS011;40452;50.080;20.040;2024-01-30T04:40:01;35.33;;;20.83;;
54557;SDS011;40452;50.080;20.040;2024-01-30T04:42:28;35.80;;;22.52;;
54557;SDS011;40452;50.080;20.040;2024-01-30T04:44:54;33.95;;;21.40;;
54557;SDS011;40452;50.080;20.040;2024-01-30T04:47:20;33.00;;;20.67;;
54557;SDS011;40452;50.080;20.040;2024-01-30T04:49:46;31.95;;;19.75;;
54557;SDS011;40452;50.080;20.040;2024-01-30T04:52:12;38.72;;;21.92;;
54557;SDS011;40452;50.080;20.040;2024-01-30T04:54:38;35.80;;;21.38;;
54557;SDS011;40452;50.080;20.040;2024-01-30T04:57:04;33.50;;;21.02;;
54557;SDS011;40452;50.080;20.040;2024-01-30T04:59:34;35.23;;;21.73;;
54557;SDS011;40452;50.080;20.040;2024-01-30T05:02:00;34.10;;;22.63;;
54557;SDS011;40452;50.080;20.040;2024-01-30T05:04:26;34.55;;;21.58;;
54557;SDS011;40452;50.080;20.040;2024-01-30T05:06:52;41.40;;;22.45;;
54557;SDS011;40452;50.080;20.040;2024-01-30T05:09:18;32.10;;;20.60;;
54557;SDS011;40452;50.080;20.040;2024-01-30T05:11:45;40.78;;;21.73;;
54557;SDS011;40452;50.080;20.040;2024-01-30T05:14:11;32.55;;;20.80;;
54557;SDS011;40452;50.080;20.040;2024-01-30T05:16:37;34.67;;;21.00;;
54557;SDS011;40452;50.080;20.040;2024-01-30T05:19:03;35.10;;;20.90;;
54557;SDS011;40452;50.080;20.040;2024-01-30T05:21:29;33.35;;;21.20;;
54557;SDS011;40452;50.080;20.040;2024-01-30T05:23:55;34.15;;;21.45;;
54557;SDS011;40452;50.080;20.040;2024-01-30T05:26:23;32.17;;;20.52;;
54557;SDS011;40452;50.080;20.040;2024-01-30T05:28:49;35.05;;;20.75;;
54557;SDS011;40452;50.080;20.040;2024-01-30T05:31:15;32.20;;;21.30;;
54557;SDS011;40452;50.080;20.040;2024-01-30T05:33:41;32.50;;;21.08;;
54557;SDS011;40452;50.080;20.040;2024-01-30T05:36:07;30.88;;;21.00;;
54557;SDS011;40452;50.080;20.040;2024-01-30T05:38:33;33.92;;;21.02;;
54557;SDS011;40452;50.080;20.040;2024-01-30T05:40:59;34.50;;;21.30;;
54557;SDS011;40452;50.080;20.040;2024-01-30T05:43:25;33.47;;;20.48;;
54557;SDS011;40452;50.080;20.040;2024-01-30T05:45:51;32.05;;;20.48;;
54557;SDS011;40452;50.080;20.040;2024-01-30T05:48:17;32.55;;;21.27;;
54557;SDS011;40452;50.080;20.040;2024-01-30T05:50:43;35.95;;;21.38;;
54557;SDS011;40452;50.080;20.040;2024-01-30T05:53:10;35.40;;;20.25;;
54557;SDS011;40452;50.080;20.040;2024-01-30T05:55:36;32.88;;;19.60;;
54557;SDS011;40452;50.080;20.040;2024-01-30T05:58:02;30.60;;;19.65;;
54557;SDS011;40452;50.080;20.040;2024-01-30T06:00:29;30.70;;;19.83;;
54557;SDS011;40452;50.080;20.040;2024-01-30T06:02:55;33.42;;;19.52;;
54557;SDS011;40452;50.080;20.040;2024-01-30T06:05:21;31.13;;;19.70;;
54557;SDS011;40452;50.080;20.040;2024-01-30T06:07:47;34.30;;;20.25;;
54557;SDS011;40452;50.080;20.040;2024-01-30T06:10:13;29.42;;;19.48;;
54557;SDS011;40452;50.080;20.040;2024-01-30T06:12:39;32.15;;;20.23;;
54557;SDS011;40452;50.080;20.040;2024-01-30T06:15:05;35.30;;;18.80;;
54557;SDS011;40452;50.080;20.040;2024-01-30T06:17:31;33.72;;;19.52;;
54557;SDS011;40452;50.080;20.040;2024-01-30T06:19:57;31.65;;;19.17;;
54557;SDS011;40452;50.080;20.040;2024-01-30T06:22:24;30.42;;;19.30;;
54557;SDS011;40452;50.080;20.040;2024-01-30T06:24:50;30.13;;;18.90;;
54557;SDS011;40452;50.080;20.040;2024-01-30T06:27:16;32.85;;;19.70;;
54557;SDS011;40452;50.080;20.040;2024-01-30T06:29:45;30.45;;;18.77;;
54557;SDS011;40452;50.080;20.040;2024-01-30T06:32:11;33.25;;;19.25;;
54557;SDS011;40452;50.080;20.040;2024-01-30T06:34:37;33.22;;;19.83;;
54557;SDS011;40452;50.080;20.040;2024-01-30T06:37:05;31.95;;;19.88;;
54557;SDS011;40452;50.080;20.040;2024-01-30T06:39:31;34.75;;;19.83;;
54557;SDS011;40452;50.080;20.040;2024-01-30T06:41:57;29.63;;;19.10;;
54557;SDS011;40452;50.080;20.040;2024-01-30T06:44:22;29.60;;;18.05;;
54557;SDS011;40452;50.080;20.040;2024-01-30T06:46:49;29.73;;;18.67;;
54557;SDS011;40452;50.080;20.040;2024-01-30T06:49:15;31.05;;;18.48;;
54557;SDS011;40452;50.080;20.040;2024-01-30T06:51:41;33.00;;;18.45;;
54557;SDS011;40452;50.080;20.040;2024-01-30T06:54:06;30.15;;;19.63;;
54557;SDS011;40452;50.080;20.040;2024-01-30T06:56:33;33.00;;;19.67;;
54557;SDS011;40452;50.080;20.040;2024-01-30T06:58:59;29.25;;;18.35;;
54557;SDS011;40452;50.080;20.040;2024-01-30T07:01:28;31.70;;;18.35;;
54557;SDS011;40452;50.080;20.040;2024-01-30T07:03:54;30.83;;;18.40;;
54557;SDS011;40452;50.080;20.040;2024-01-30T07:06:20;30.48;;;17.50;;
54557;SDS011;40452;50.080;20.040;2024-01-30T07:08:47;28.33;;;17.75;;
54557;SDS011;40452;50.080;20.040;2024-01-30T07:11:19;29.88;;;18.73;;
54557;SDS011;40452;50.080;20.040;2024-01-30T07:13:47;32.08;;;18.85;;
54557;SDS011;40452;50.080;20.040;2024-01-30T07:16:13;31.00;;;18.35;;
54557;SDS011;40452;50.080;20.040;2024-01-30T07:18:40;31.02;;;18.17;;
54557;SDS011;40452;50.080;20.040;2024-01-30T07:21:06;31.73;;;18.85;;
54557;SDS011;40452;50.080;20.040;2024-01-30T07:23:32;28.63;;;18.15;;
54557;SDS011;40452;50.080;20.040;2024-01-30T07:25:59;29.05;;;18.05;;
54557;SDS011;40452;50.080;20.040;2024-01-30T07:28:25;28.00;;;18.25;;
54557;SDS011;40452;50.080;20.040;2024-01-30T07:30:51;31.30;;;19.48;;
54557;SDS011;40452;50.080;20.040;2024-01-30T07:33:17;32.47;;;19.67;;
54557;SDS011;40452;50.080;20.040;2024-01-30T07:35:44;29.40;;;18.30;;
54557;SDS011;40452;50.080;20.040;2024-01-30T07:38:10;30.45;;;18.77;;
54557;SDS011;40452;50.080;20.040;2024-01-30T07:40:36;31.40;;;18.50;;
54557;SDS011;40452;50.080;20.040;2024-01-30T07:43:03;30.60;;;18.90;;
54557;SDS011;40452;50.080;20.040;2024-01-30T07:45:29;29.98;;;18.88;;
54557;SDS011;40452;50.080;20.040;2024-01-30T07:47:58;28.90;;;19.08;;
54557;SDS011;40452;50.080;20.040;2024-01-30T07:50:25;31.92;;;19.40;;
54557;SDS011;40452;50.080;20.040;2024-01-30T07:52:51;30.67;;;18.10;;
54557;SDS011;40452;50.080;20.040;2024-01-30T07:55:19;31.30;;;19.17;;
54557;SDS011;40452;50.080;20.040;2024-01-30T07:57:47;29.77;;;19.30;;
54557;SDS011;40452;50.080;20.040;2024-01-30T08:00:13;31.67;;;18.63;;
54557;SDS011;40452;50.080;20.040;2024-01-30T08:02:40;31.48;;;18.67;;
54557;SDS011;40452;50.080;20.040;2024-01-30T08:05:06;30.27;;;17.55;;
54557;SDS011;40452;50.080;20.040;2024-01-30T08:07:34;27.55;;;17.70;;
54557;SDS011;40452;50.080;20.040;2024-01-30T08:10:00;30.00;;;18.92;;
54557;SDS011;40452;50.080;20.040;2024-01-30T08:12:26;28.83;;;18.25;;
54557;SDS011;40452;50.080;20.040;2024-01-30T08:14:52;29.85;;;19.05;;
54557;SDS011;40452;50.080;20.040;2024-01-30T08:17:18;31.33;;;19.13;;
54557;SDS011;40452;50.080;20.040;2024-01-30T08:19:44;31.70;;;18.77;;
54557;SDS011;40452;50.080;20.040;2024-01-30T08:22:11;32.83;;;19.55;;
54557;SDS011;40452;50.080;20.040;2024-01-30T08:24:38;27.33;;;17.48;;
54557;SDS011;40452;50.080;20.040;2024-01-30T08:27:05;30.60;;;18.50;;
54557;SDS011;40452;50.080;20.040;2024-01-30T08:29:34;30.35;;;18.67;;
54557;SDS011;40452;50.080;20.040;2024-01-30T08:32:00;30.45;;;18.67;;
54557;SDS011;40452;50.080;20.040;2024-01-30T08:34:26;31.70;;;19.00;;
54557;SDS011;40452;50.080;20.040;2024-01-30T08:36:52;29.98;;;18.75;;
54557;SDS011;40452;50.080;20.040;2024-01-30T08:39:18;28.98;;;18.55;;
54557;SDS011;40452;50.080;20.040;2024-01-30T08:41:45;31.73;;;19.17;;
54557;SDS011;40452;50.080;20.040;2024-01-30T14:20:09;43.97;;;27.40;;
54557;SDS011;40452;50.080;20.040;2024-01-30T14:22:35;60.47;;;34.42;;
54557;SDS011;40452;50.080;20.040;2024-01-30T14:25:01;49.10;;;27.73;;
54557;SDS011;40452;50.080;20.040;2024-01-30T14:27:30;44.92;;;27.25;;
54557;SDS011;40452;50.080;20.040;2024-01-30T14:29:57;45.10;;;27.05;;
54557;SDS011;40452;50.080;20.040;2024-01-30T14:32:23;45.83;;;24.65;;
54557;SDS011;40452;50.080;20.040;2024-01-30T14:34:50;45.95;;;25.33;;
54557;SDS011;40452;50.080;20.040;2024-01-30T14:37:17;46.60;;;25.63;;
54557;SDS011;40452;50.080;20.040;2024-01-30T14:39:43;43.60;;;24.90;;
54557;SDS011;40452;50.080;20.040;2024-01-30T14:42:11;43.67;;;25.40;;
54557;SDS011;40452;50.080;20.040;2024-01-30T14:44:37;43.47;;;25.83;;
54557;SDS011;40452;50.080;20.040;2024-01-30T14:47:04;39.30;;;23.60;;
54557;SDS011;40452;50.080;20.040;2024-01-30T14:49:31;45.20;;;24.45;;
54557;SDS011;40452;50.080;20.040;2024-01-30T14:51:57;39.90;;;24.25;;
54557;SDS011;40452;50.080;20.040;2024-01-30T14:54:26;50.22;;;30.98;;
54557;SDS011;40452;50.080;20.040;2024-01-30T14:56:52;51.40;;;29.92;;
54557;SDS011;40452;50.080;20.040;2024-01-30T14:59:18;65.72;;;30.55;;
54557;SDS011;40452;50.080;20.040;2024-01-30T15:01:44;46.85;;;27.67;;
54557;SDS011;40452;50.080;20.040;2024-01-30T15:04:10;47.35;;;26.70;;
54557;SDS011;40452;50.080;20.040;2024-01-30T15:06:36;46.15;;;27.30;;
54557;SDS011;40452;50.080;20.040;2024-01-30T15:09:02;45.88;;;27.00;;
54557;SDS011;40452;50.080;20.040;2024-01-30T15:11:28;43.20;;;27.05;;
54557;SDS011;40452;50.080;20.040;2024-01-30T15:13:55;46.17;;;27.77;;
54557;SDS011;40452;50.080;20.040;2024-01-30T15:16:21;42.38;;;26.27;;
54557;SDS011;40452;50.080;20.040;2024-01-30T15:18:47;44.28;;;25.73;;
54557;SDS011;40452;50.080;20.040;2024-01-30T15:21:13;46.33;;;26.27;;
54557;SDS011;40452;50.080;20.040;2024-01-30T15:23:39;40.97;;;26.13;;
54557;SDS011;40452;50.080;20.040;2024-01-30T15:26:05;43.58;;;25.02;;
54557;SDS011;40452;50.080;20.040;2024-01-30T15:28:35;41.55;;;24.80;;
54557;SDS011;40452;50.080;20.040;2024-01-30T15:31:04;44.92;;;23.45;;
54557;SDS011;40452;50.080;20.040;2024-01-30T15:33:30;40.75;;;24.00;;
54557;SDS011;40452;50.080;20.040;2024-01-30T15:35:57;43.78;;;24.75;;
54557;SDS011;40452;50.080;20.040;2024-01-30T15:38:23;40.53;;;23.58;;
54557;SDS011;40452;50.080;20.040;2024-01-30T15:40:49;41.17;;;24.27;;
54557;SDS011;40452;50.080;20.040;2024-01-30T15:43:15;41.00;;;24.08;;
54557;SDS011;40452;50.080;20.040;2024-01-30T15:45:41;41.75;;;23.52;;
54557;SDS011;40452;50.080;20.040;2024-01-30T15:48:08;41.00;;;23.60;;
54557;SDS011;40452;50.080;20.040;2024-01-30T15:50:34;40.80;;;22.38;;
54557;SDS011;40452;50.080;20.040;2024-01-30T15:53:00;40.95;;;22.90;;
54557;SDS011;40452;50.080;20.040;2024-01-30T15:55:25;41.97;;;23.35;;
54557;SDS011;40452;50.080;20.040;2024-01-30T15:57:52;40.08;;;22.60;;
54557;SDS011;40452;50.080;20.040;2024-01-30T16:00:18;40.20;;;23.02;;
54557;SDS011;40452;50.080;20.040;2024-01-30T16:02:44;42.10;;;23.73;;
54557;SDS011;40452;50.080;20.040;2024-01-30T16:05:10;37.75;;;22.60;;
54557;SDS011;40452;50.080;20.040;2024-01-30T16:07:37;39.05;;;22.75;;
54557;SDS011;40452;50.080;20.040;2024-01-30T16:10:03;39.22;;;22.67;;
54557;SDS011;40452;50.080;20.040;2024-01-30T16:12:29;38.13;;;22.70;;
54557;SDS011;40452;50.080;20.040;2024-01-30T16:14:55;38.28;;;22.08;;
54557;SDS011;40452;50.080;20.040;2024-01-30T16:17:21;34.95;;;21.15;;
54557;SDS011;40452;50.080;20.040;2024-01-30T16:19:47;48.03;;;22.85;;
54557;SDS011;40452;50.080;20.040;2024-01-30T16:22:17;36.08;;;21.80;;
54557;SDS011;40452;50.080;20.040;2024-01-30T16:24:45;33.33;;;21.08;;
54557;SDS011;40452;50.080;20.040;2024-01-30T16:27:12;38.03;;;20.90;;
54557;SDS011;40452;50.080;20.040;2024-01-30T16:29:38;33.35;;;19.75;;
54557;SDS011;40452;50.080;20.040;2024-01-30T16:32:04;34.67;;;20.08;;
54557;SDS011;40452;50.080;20.040;2024-01-30T16:34:30;33.20;;;18.85;;
54557;SDS011;40452;50.080;20.040;2024-01-30T16:36:57;31.85;;;19.38;;
54557;SDS011;40452;50.080;20.040;2024-01-30T16:39:23;33.47;;;18.90;;
54557;SDS011;40452;50.080;20.040;2024-01-30T16:41:49;28.08;;;17.75;;
54557;SDS011;40452;50.080;20.040;2024-01-30T16:44:15;30.60;;;18.75;;
54557;SDS011;40452;50.080;20.040;2024-01-30T16:46:41;30.27;;;18.55;;
54557;SDS011;40452;50.080;20.040;2024-01-30T16:49:07;28.80;;;17.63;;
54557;SDS011;40452;50.080;20.040;2024-01-30T16:51:33;30.73;;;17.90;;
54557;SDS011;40452;50.080;20.040;2024-01-30T16:53:59;31.67;;;18.23;;
54557;SDS011;40452;50.080;20.040;2024-01-30T16:56:25;28.80;;;17.65;;
54557;SDS011;40452;50.080;20.040;2024-01-30T16:58:51;27.80;;;17.02;;
54557;SDS011;40452;50.080;20.040;2024-01-30T17:01:17;29.58;;;18.55;;
54557;SDS011;40452;50.080;20.040;2024-01-30T17:03:43;30.17;;;17.70;;
54557;SDS011;40452;50.080;20.040;2024-01-30T17:06:12;28.73;;;17.48;;
54557;SDS011;40452;50.080;20.040;2024-01-30T17:08:39;30.85;;;17.75;;
54557;SDS011;40452;50.080;20.040;2024-01-30T17:11:05;25.65;;;17.17;;
54557;SDS011;40452;50.080;20.040;2024-01-30T17:13:31;28.63;;;17.70;;
54557;SDS011;40452;50.080;20.040;2024-01-30T17:15:57;28.20;;;17.58;;
54557;SDS011;40452;50.080;20.040;2024-01-30T17:18:23;30.58;;;17.80;;
54557;SDS011;40452;50.080;20.040;2024-01-30T17:20:49;28.48;;;17.52;;
54557;SDS011;40452;50.080;20.040;2024-01-30T17:23:15;32.50;;;17.50;;
54557;SDS011;40452;50.080;20.040;2024-01-30T17:25:41;30.02;;;16.70;;
54557;SDS011;40452;50.080;20.040;2024-01-30T17:28:07;27.35;;;17.10;;
54557;SDS011;40452;50.080;20.040;2024-01-30T17:30:34;24.67;;;16.20;;
54557;SDS011;40452;50.080;20.040;2024-01-30T17:33:02;25.80;;;16.67;;
54557;SDS011;40452;50.080;20.040;2024-01-30T17:35:28;26.30;;;16.05;;
54557;SDS011;40452;50.080;20.040;2024-01-30T17:37:54;27.05;;;16.60;;
54557;SDS011;40452;50.080;20.040;2024-01-30T17:40:20;25.73;;;16.15;;
54557;SDS011;40452;50.080;20.040;2024-01-30T17:42:45;29.52;;;16.23;;
54557;SDS011;40452;50.080;20.040;2024-01-30T17:45:11;29.48;;;16.92;;
54557;SDS011;40452;50.080;20.040;2024-01-30T17:47:37;29.65;;;16.25;;
54557;SDS011;40452;50.080;20.040;2024-01-30T17:50:04;31.58;;;16.88;;
54557;SDS011;40452;50.080;20.040;2024-01-30T17:52:30;26.33;;;15.68;;
54557;SDS011;40452;50.080;20.040;2024-01-30T17:54:56;28.50;;;15.52;;
54557;SDS011;40452;50.080;20.040;2024-01-30T17:57:22;25.98;;;16.40;;
54557;SDS011;40452;50.080;20.040;2024-01-30T17:59:48;30.95;;;16.55;;
54557;SDS011;40452;50.080;20.040;2024-01-30T18:02:14;29.90;;;16.35;;
54557;SDS011;40452;50.080;20.040;2024-01-30T18:04:40;25.92;;;15.52;;
54557;SDS011;40452;50.080;20.040;2024-01-30T18:07:06;23.52;;;14.88;;
54557;SDS011;40452;50.080;20.040;2024-01-30T18:09:35;27.50;;;15.77;;
54557;SDS011;40452;50.080;20.040;2024-01-30T18:12:01;26.42;;;15.85;;
54557;SDS011;40452;50.080;20.040;2024-01-30T18:14:27;26.27;;;15.40;;
54557;SDS011;40452;50.080;20.040;2024-01-30T18:16:53;26.70;;;15.32;;
54557;SDS011;40452;50.080;20.040;2024-01-30T18:19:19;22.75;;;14.20;;
54557;SDS011;40452;50.080;20.040;2024-01-30T18:21:45;26.23;;;15.00;;
54557;SDS011;40452;50.080;20.040;2024-01-30T18:24:11;25.38;;;14.60;;
54557;SDS011;40452;50.080;20.040;2024-01-30T18:26:37;38.72;;;15.20;;
54557;SDS011;40452;50.080;20.040;2024-01-30T18:29:03;23.98;;;14.43;;
54557;SDS011;40452;50.080;20.040;2024-01-30T18:31:30;23.23;;;14.43;;
54557;SDS011;40452;50.080;20.040;2024-01-30T18:33:56;23.52;;;14.40;;
54557;SDS011;40452;50.080;20.040;2024-01-30T18:36:23;23.98;;;13.85;;
54557;SDS011;40452;50.080;20.040;2024-01-30T18:38:54;24.23;;;14.50;;
54557;SDS011;40452;50.080;20.040;2024-01-30T18:41:20;23.83;;;13.27;;
54557;SDS011;40452;50.080;20.040;2024-01-30T18:43:46;23.98;;;14.60;;
54557;SDS011;40452;50.080;20.040;2024-01-30T18:46:12;25.65;;;14.27;;
54557;SDS011;40452;50.080;20.040;2024-01-30T18:48:38;21.13;;;12.88;;
54557;SDS011;40452;50.080;20.040;2024-01-30T18:51:05;25.80;;;14.50;;
54557;SDS011;40452;50.080;20.040;2024-01-30T18:53:31;26.23;;;13.95;;
54557;SDS011;40452;50.080;20.040;2024-01-30T18:55:57;25.75;;;13.90;;
54557;SDS011;40452;50.080;20.040;2024-01-30T18:58:23;34.13;;;14.88;;
54557;SDS011;40452;50.080;20.040;2024-01-30T19:00:49;26.20;;;14.38;;
54557;SDS011;40452;50.080;20.040;2024-01-30T19:03:18;27.33;;;14.43;;
54557;SDS011;40452;50.080;20.040;2024-01-30T19:05:44;24.98;;;14.18;;
54557;SDS011;40452;50.080;20.040;2024-01-30T19:08:10;27.00;;;14.98;;
54557;SDS011;40452;50.080;20.040;2024-01-30T19:10:36;26.00;;;14.35;;
54557;SDS011;40452;50.080;20.040;2024-01-30T19:13:02;25.05;;;14.93;;
54557;SDS011;40452;50.080;20.040;2024-01-30T19:15:30;30.08;;;16.27;;
54557;SDS011;40452;50.080;20.040;2024-01-30T19:17:56;33.97;;;16.05;;
54557;SDS011;40452;50.080;20.040;2024-01-30T19:20:24;27.98;;;16.92;;
54557;SDS011;40452;50.080;20.040;2024-01-30T19:22:50;24.63;;;15.57;;
54557;SDS011;40452;50.080;20.040;2024-01-30T19:25:16;28.05;;;15.75;;
54557;SDS011;40452;50.080;20.040;2024-01-30T19:27:42;25.45;;;15.43;;
54557;SDS011;40452;50.080;20.040;2024-01-30T19:30:08;27.08;;;16.00;;
54557;SDS011;40452;50.080;20.040;2024-01-30T19:32:35;26.58;;;15.63;;
54557;SDS011;40452;50.080;20.040;2024-01-30T19:35:01;28.63;;;16.45;;
54557;SDS011;40452;50.080;20.040;2024-01-30T19:37:29;29.48;;;15.70;;
54557;SDS011;40452;50.080;20.040;2024-01-30T19:39:57;27.73;;;16.35;;
54557;SDS011;40452;50.080;20.040;2024-01-30T19:42:23;32.03;;;17.92;;
54557;SDS011;40452;50.080;20.040;2024-01-30T19:44:49;33.83;;;20.55;;
54557;SDS011;40452;50.080;20.040;2024-01-30T19:47:15;31.80;;;18.50;;
54557;SDS011;40452;50.080;20.040;2024-01-30T19:49:41;32.15;;;18.27;;
54557;SDS011;40452;50.080;20.040;2024-01-30T19:52:08;34.28;;;18.80;;
54557;SDS011;40452;50.080;20.040;2024-01-30T19:54:35;30.63;;;17.83;;
54557;SDS011;40452;50.080;20.040;2024-01-30T19:57:01;34.70;;;18.13;;
54557;SDS011;40452;50.080;20.040;2024-01-30T19:59:35;35.10;;;18.50;;
54557;SDS011;40452;50.080;20.040;2024-01-30T20:02:01;31.83;;;18.25;;
54557;SDS011;40452;50.080;20.040;2024-01-30T20:04:28;29.75;;;17.00;;
54557;SDS011;40452;50.080;20.040;2024-01-30T20:06:54;29.23;;;17.75;;
54557;SDS011;40452;50.080;20.040;2024-01-30T20:09:20;28.15;;;17.48;;
54557;SDS011;40452;50.080;20.040;2024-01-30T20:11:48;30.33;;;16.08;;
54557;SDS011;40452;50.080;20.040;2024-01-30T20:14:17;31.80;;;17.23;;
54557;SDS011;40452;50.080;20.040;2024-01-30T20:16:43;30.98;;;17.38;;
54557;SDS011;40452;50.080;20.040;2024-01-30T20:19:09;29.13;;;15.77;;
54557;SDS011;40452;50.080;20.040;2024-01-30T20:21:35;26.00;;;16.75;;
54557;SDS011;40452;50.080;20.040;2024-01-30T20:24:05;30.80;;;16.23;;
54557;SDS011;40452;50.080;20.040;2024-01-30T20:26:31;27.85;;;16.15;;
54557;SDS011;40452;50.080;20.040;2024-01-30T20:28:58;23.95;;;15.43;;
54557;SDS011;40452;50.080;20.040;2024-01-30T20:31:24;26.10;;;15.32;;
54557;SDS011;40452;50.080;20.040;2024-01-30T20:33:53;27.52;;;15.50;;
54557;SDS011;40452;50.080;20.040;2024-01-30T20:36:21;26.13;;;15.93;;
54557;SDS011;40452;50.080;20.040;2024-01-30T20:38:50;29.17;;;14.90;;
54557;SDS011;40452;50.080;20.040;2024-01-30T20:41:16;24.55;;;14.60;;
54557;SDS011;40452;50.080;20.040;2024-01-30T20:43:43;24.42;;;14.10;;
54557;SDS011;40452;50.080;20.040;2024-01-30T20:46:09;26.83;;;13.80;;
54557;SDS011;40452;50.080;20.040;2024-01-30T20:48:38;24.88;;;14.35;;
54557;SDS011;40452;50.080;20.040;2024-01-30T20:51:05;31.17;;;14.27;;
54557;SDS011;40452;50.080;20.040;2024-01-30T20:53:31;29.77;;;13.43;;
54557;SDS011;40452;50.080;20.040;2024-01-30T20:55:57;20.65;;;13.52;;
54557;SDS011;40452;50.080;20.040;2024-01-30T20:58:23;24.65;;;14.02;;
54557;SDS011;40452;50.080;20.040;2024-01-30T21:00:49;23.05;;;13.45;;
54557;SDS011;40452;50.080;20.040;2024-01-30T21:03:15;21.10;;;13.85;;
54557;SDS011;40452;50.080;20.040;2024-01-30T21:05:41;20.55;;;13.07;;
54557;SDS011;40452;50.080;20.040;2024-01-30T21:08:10;23.77;;;13.70;;
54557;SDS011;40452;50.080;20.040;2024-01-30T21:10:37;27.13;;;13.27;;
54557;SDS011;40452;50.080;20.040;2024-01-30T21:13:03;27.20;;;12.85;;
54557;SDS011;40452;50.080;20.040;2024-01-30T21:15:29;20.65;;;12.43;;
54557;SDS011;40452;50.080;20.040;2024-01-30T21:17:55;22.70;;;12.82;;
54557;SDS011;40452;50.080;20.040;2024-01-30T21:20:21;20.27;;;12.55;;
54557;SDS011;40452;50.080;20.040;2024-01-30T21:22:47;24.08;;;12.90;;
54557;SDS011;40452;50.080;20.040;2024-01-30T21:25:13;21.27;;;12.40;;
54557;SDS011;40452;50.080;20.040;2024-01-30T21:27:39;22.02;;;12.48;;
54557;SDS011;40452;50.080;20.040;2024-01-30T21:30:06;20.33;;;11.88;;
54557;SDS011;40452;50.080;20.040;2024-01-30T21:32:32;22.63;;;13.40;;
54557;SDS011;40452;50.080;20.040;2024-01-30T21:34:58;20.73;;;13.85;;
54557;SDS011;40452;50.080;20.040;2024-01-30T21:37:24;29.05;;;15.30;;
54557;SDS011;40452;50.080;20.040;2024-01-30T21:39:50;23.10;;;14.73;;
54557;SDS011;40452;50.080;20.040;2024-01-30T21:42:19;25.23;;;15.20;;
54557;SDS011;40452;50.080;20.040;2024-01-30T21:44:45;23.08;;;14.73;;
54557;SDS011;40452;50.080;20.040;2024-01-30T21:47:11;29.00;;;16.13;;
54557;SDS011;40452;50.080;20.040;2024-01-30T21:49:38;27.67;;;15.60;;
54557;SDS011;40452;50.080;20.040;2024-01-30T21:52:04;25.60;;;15.98;;
54557;SDS011;40452;50.080;20.040;2024-01-30T21:54:31;28.02;;;16.73;;
54557;SDS011;40452;50.080;20.040;2024-01-30T21:56:57;25.70;;;16.13;;
54557;SDS011;40452;50.080;20.040;2024-01-30T21:59:23;28.25;;;16.00;;
54557;SDS011;40452;50.080;20.040;2024-01-30T22:01:49;26.10;;;16.80;;
54557;SDS011;40452;50.080;20.040;2024-01-30T22:04:15;28.15;;;16.15;;
54557;SDS011;40452;50.080;20.040;2024-01-30T22:06:41;26.55;;;16.35;;
54557;SDS011;40452;50.080;20.040;2024-01-30T22:09:08;27.98;;;16.48;;
54557;SDS011;40452;50.080;20.040;2024-01-30T22:11:34;28.02;;;17.30;;
54557;SDS011;40452;50.080;20.040;2024-01-30T22:14:00;27.73;;;17.27;;
54557;SDS011;40452;50.080;20.040;2024-01-30T22:16:26;30.08;;;16.48;;
54557;SDS011;40452;50.080;20.040;2024-01-30T22:18:52;28.35;;;17.23;;
54557;SDS011;40452;50.080;20.040;2024-01-30T22:21:18;29.38;;;17.40;;
54557;SDS011;40452;50.080;20.040;2024-01-30T22:23:44;28.98;;;16.45;;
54557;SDS011;40452;50.080;20.040;2024-01-30T22:26:11;28.27;;;17.30;;
54557;SDS011;40452;50.080;20.040;2024-01-30T22:28:37;28.58;;;18.00;;
54557;SDS011;40452;50.080;20.040;2024-01-30T22:31:03;32.70;;;17.00;;
54557;SDS011;40452;50.080;20.040;2024-01-30T22:33:29;32.83;;;17.80;;
54557;SDS011;40452;50.080;20.040;2024-01-30T22:35:55;30.15;;;16.92;;
54557;SDS011;40452;50.080;20.040;2024-01-30T22:38:21;29.38;;;17.33;;
54557;SDS011;40452;50.080;20.040;2024-01-30T22:40:47;28.50;;;17.10;;
54557;SDS011;40452;50.080;20.040;2024-01-30T22:43:13;30.77;;;17.98;;
54557;SDS011;40452;50.080;20.040;2024-01-30T22:45:39;30.38;;;18.02;;
54557;SDS011;40452;50.080;20.040;2024-01-30T22:48:05;30.83;;;17.77;;
54557;SDS011;40452;50.080;20.040;2024-01-30T22:50:31;31.55;;;18.65;;
54557;SDS011;40452;50.080;20.040;2024-01-30T22:52:57;31.17;;;18.55;;
54557;SDS011;40452;50.080;20.040;2024-01-30T22:55:23;32.25;;;17.92;;
54557;SDS011;40452;50.080;20.040;2024-01-30T22:57:49;28.80;;;18.20;;
54557;SDS011;40452;50.080;20.040;2024-01-30T23:00:16;29.92;;;18.30;;
54557;SDS011;40452;50.080;20.040;2024-01-30T23:02:50;32.65;;;18.10;;
54557;SDS011;40452;50.080;20.040;2024-01-30T23:05:18;30.48;;;18.55;;
54557;SDS011;40452;50.080;20.040;2024-01-30T23:07:45;29.27;;;18.08;;
54557;SDS011;40452;50.080;20.040;2024-01-30T23:10:11;30.33;;;18.50;;
54557;SDS011;40452;50.080;20.040;2024-01-30T23:12:38;30.23;;;18.67;;
54557;SDS011;40452;50.080;20.040;2024-01-30T23:15:06;28.02;;;17.75;;
54557;SDS011;40452;50.080;20.040;2024-01-30T23:17:32;29.95;;;18.25;;
54557;SDS011;40452;50.080;20.040;2024-01-30T23:19:59;28.10;;;18.33;;
54557;SDS011;40452;50.080;20.040;2024-01-30T23:22:25;32.78;;;18.67;;
54557;SDS011;40452;50.080;20.040;2024-01-30T23:24:52;30.98;;;19.48;;
54557;SDS011;40452;50.080;20.040;2024-01-30T23:27:18;29.38;;;18.58;;
54557;SDS011;40452;50.080;20.040;2024-01-30T23:29:44;33.10;;;19.55;;
54557;SDS011;40452;50.080;20.040;2024-01-30T23:32:10;32.22;;;18.95;;
54557;SDS011;40452;50.080;20.040;2024-01-30T23:34:36;30.52;;;18.42;;
54557;SDS011;40452;50.080;20.040;2024-01-30T23:37:02;30.50;;;19.38;;
54557;SDS011;40452;50.080;20.040;2024-01-30T23:39:31;31.27;;;18.88;;
